createdAt,value
2019-01-03T00:02:02.329Z,5.33
2019-01-03T00:04:58.846Z,5.23
2019-01-03T00:08:01.785Z,5.50
2019-01-03T00:10:43.332Z,6.60
2019-01-03T00:13:34.055Z,6.50
2019-01-03T00:16:27.634Z,5.93
2019-01-03T00:19:21.157Z,5.57
2019-01-03T00:22:23.769Z,5.20
2019-01-03T00:25:12.987Z,5.20
2019-01-03T00:28:05.564Z,5.07
2019-01-03T00:30:54.946Z,5.50
2019-01-03T00:33:44.084Z,4.70
2019-01-03T00:36:34.401Z,5.17
2019-01-03T00:39:35.531Z,5.30
2019-01-03T00:42:26.111Z,5.53
2019-01-03T00:45:15.610Z,5.77
2019-01-03T00:48:20.182Z,6.10
2019-01-03T00:51:09.397Z,5.80
2019-01-03T00:54:02.951Z,5.73
2019-01-03T00:57:00.347Z,5.83
2019-01-03T00:59:49.544Z,6.00
2019-01-03T01:02:39.082Z,6.57
2019-01-03T01:05:32.890Z,5.27
2019-01-03T01:08:21.976Z,5.47
2019-01-03T01:11:11.389Z,4.97
2019-01-03T01:14:17.284Z,5.27
2019-01-03T01:17:06.761Z,5.47
2019-01-03T01:19:56.179Z,5.37
2019-01-03T01:22:52.728Z,5.33
2019-01-03T01:25:41.879Z,6.23
2019-01-03T01:28:38.750Z,5.63
2019-01-03T01:31:41.474Z,5.07
2019-01-03T01:34:30.983Z,5.63
2019-01-03T01:37:14.812Z,5.00
2019-01-03T01:40:05.541Z,5.80
2019-01-03T01:42:56.266Z,5.67
2019-01-03T01:45:47.041Z,5.03
2019-01-03T01:48:37.773Z,4.70
2019-01-03T01:51:37.722Z,5.33
2019-01-03T01:54:24.665Z,5.70
2019-01-03T01:57:20.052Z,4.93
2019-01-03T02:00:09.535Z,5.10
2019-01-03T02:03:18.560Z,5.33
2019-01-03T02:05:58.768Z,4.57
2019-01-03T02:08:47.747Z,4.90
2019-01-03T02:11:37.048Z,4.50
2019-01-03T02:14:26.207Z,4.47
2019-01-03T02:17:15.383Z,4.77
2019-01-03T02:20:04.033Z,4.70
2019-01-03T02:23:03.933Z,5.03
2019-01-03T02:26:00.165Z,4.80
2019-01-03T02:28:59.975Z,5.03
2019-01-03T02:31:49.411Z,4.07
2019-01-03T02:34:38.466Z,5.30
2019-01-03T02:37:27.880Z,4.90
2019-01-03T02:40:27.941Z,4.27
2019-01-03T02:43:17.152Z,4.37
2019-01-03T02:46:07.985Z,4.53
2019-01-03T02:48:58.782Z,4.63
2019-01-03T02:51:47.964Z,4.30
2019-01-03T02:54:41.464Z,4.67
2019-01-03T02:57:32.195Z,4.80
2019-01-03T03:00:20.629Z,4.33
2019-01-03T03:03:20.461Z,4.23
2019-01-03T03:06:11.202Z,3.80
2019-01-03T03:08:52.788Z,4.43
2019-01-03T03:11:55.792Z,3.50
2019-01-03T03:14:43.767Z,4.20
2019-01-03T03:17:44.843Z,3.70
2019-01-03T03:20:53.838Z,4.20
2019-01-03T03:23:43.430Z,3.83
2019-01-03T03:26:40.071Z,3.60
2019-01-03T03:29:30.761Z,4.70
2019-01-03T03:32:19.992Z,4.27
2019-01-03T03:35:16.133Z,3.70
2019-01-03T03:38:08.099Z,3.83
2019-01-03T03:40:57.227Z,3.63
2019-01-03T03:43:46.417Z,3.73
2019-01-03T03:46:33.936Z,3.90
2019-01-03T03:49:42.572Z,3.70
2019-01-03T03:52:31.989Z,3.07
2019-01-03T03:55:21.134Z,3.40
2019-01-03T03:58:17.621Z,3.20
2019-01-03T04:01:06.755Z,3.20
2019-01-03T04:03:55.869Z,3.37
2019-01-03T04:06:58.806Z,4.13
2019-01-03T04:09:48.337Z,3.03
2019-01-03T04:12:48.040Z,4.03
2019-01-03T04:15:56.926Z,3.37
2019-01-03T04:18:46.323Z,3.30
2019-01-03T04:21:40.145Z,3.40
2019-01-03T04:24:30.938Z,4.20
2019-01-03T04:27:20.293Z,3.40
2019-01-03T04:30:13.288Z,3.70
2019-01-03T04:33:06.821Z,3.47
2019-01-03T04:35:55.911Z,3.20
2019-01-03T04:38:45.095Z,3.47
2019-01-03T04:41:41.929Z,2.97
2019-01-03T04:44:35.487Z,3.20
2019-01-03T04:47:38.535Z,3.40
2019-01-03T04:50:33.241Z,2.93
2019-01-03T04:53:39.197Z,3.43
2019-01-03T04:56:47.836Z,3.13
2019-01-03T04:59:44.215Z,3.90
2019-01-03T05:02:29.048Z,3.87
2019-01-03T05:05:13.446Z,2.77
2019-01-03T05:08:02.630Z,2.87
2019-01-03T05:10:55.368Z,2.80
2019-01-03T05:13:57.961Z,3.10
2019-01-03T05:17:00.521Z,2.80
2019-01-03T05:20:01.033Z,2.73
2019-01-03T05:22:50.146Z,2.70
2019-01-03T05:25:39.550Z,2.97
2019-01-03T05:28:36.167Z,2.90
2019-01-03T05:31:25.197Z,2.40
2019-01-03T05:34:14.568Z,2.77
2019-01-03T05:37:08.128Z,2.43
2019-01-03T05:39:57.296Z,2.40
2019-01-03T05:42:46.713Z,2.17
2019-01-03T05:45:36.248Z,2.53
2019-01-03T05:48:44.934Z,2.63
2019-01-03T05:51:35.666Z,2.30
2019-01-03T05:54:32.717Z,2.60
2019-01-03T05:57:29.210Z,2.70
2019-01-03T06:00:18.648Z,2.80
2019-01-03T06:03:01.524Z,2.97
2019-01-03T06:05:45.005Z,2.37
2019-01-03T06:08:37.232Z,2.40
2019-01-03T06:11:16.175Z,2.73
2019-01-03T06:14:22.048Z,3.53
2019-01-03T06:17:24.587Z,2.53
2019-01-03T06:20:13.107Z,2.57
2019-01-03T06:23:03.856Z,2.60
2019-01-03T06:25:52.973Z,2.27
2019-01-03T06:28:52.577Z,2.67
2019-01-03T06:31:49.554Z,1.97
2019-01-03T06:34:30.615Z,2.40
2019-01-03T06:37:33.592Z,2.30
2019-01-03T06:40:33.883Z,2.20
2019-01-03T06:43:39.790Z,2.00
2019-01-03T06:46:30.824Z,2.30
2019-01-03T06:49:27.387Z,2.10
2019-01-03T06:52:18.095Z,1.83
2019-01-03T06:55:20.858Z,2.30
2019-01-03T06:58:14.294Z,2.40
2019-01-03T07:00:54.730Z,2.57
2019-01-03T07:03:41.856Z,2.50
2019-01-03T07:06:31.084Z,1.57
2019-01-03T07:09:24.656Z,1.30
2019-01-03T07:12:24.510Z,1.90
2019-01-03T07:15:33.130Z,1.80
2019-01-03T07:18:22.323Z,1.17
2019-01-03T07:21:11.803Z,1.20
2019-01-03T07:23:57.117Z,1.50
2019-01-03T07:26:46.562Z,1.60
2019-01-03T07:29:35.862Z,1.63
2019-01-03T07:32:44.690Z,1.73
2019-01-03T07:35:31.679Z,1.67
2019-01-03T07:38:34.397Z,2.10
2019-01-03T07:41:27.888Z,2.47
2019-01-03T07:44:21.430Z,2.67
2019-01-03T07:47:14.903Z,2.93
2019-01-03T07:50:23.945Z,3.13
2019-01-03T07:53:17.811Z,3.27
2019-01-03T07:56:02.389Z,2.77
2019-01-03T07:58:50.088Z,2.97
2019-01-03T08:01:39.445Z,3.17
2019-01-03T08:04:28.770Z,2.50
2019-01-03T08:07:24.280Z,2.43
2019-01-03T08:10:13.620Z,1.90
2019-01-03T08:13:15.981Z,2.30
2019-01-03T08:16:09.567Z,2.07
2019-01-03T08:18:56.998Z,2.17
2019-01-03T08:21:59.608Z,1.70
2019-01-03T08:24:53.151Z,1.63
2019-01-03T08:27:42.378Z,2.00
2019-01-03T08:30:33.334Z,2.30
2019-01-03T08:33:22.526Z,1.60
2019-01-03T08:36:11.303Z,1.83
2019-01-03T08:39:15.245Z,1.30
2019-01-03T08:42:07.593Z,1.63
2019-01-03T08:44:56.512Z,1.50
2019-01-03T08:47:45.605Z,1.60
2019-01-03T08:50:36.321Z,1.70
2019-01-03T08:53:25.544Z,1.43
2019-01-03T08:56:16.259Z,1.70
2019-01-03T08:59:04.690Z,1.63
2019-01-03T09:01:49.805Z,1.70
2019-01-03T09:04:38.915Z,1.50
2019-01-03T09:07:35.496Z,1.50
2019-01-03T09:10:26.460Z,1.53
2019-01-03T09:13:35.390Z,1.60
2019-01-03T09:16:24.271Z,1.63
2019-01-03T09:19:13.304Z,1.60
2019-01-03T09:22:02.888Z,1.30
2019-01-03T09:24:52.211Z,1.30
2019-01-03T09:27:41.348Z,1.23
2019-01-03T09:30:40.641Z,1.47
2019-01-03T09:33:37.230Z,1.83
2019-01-03T09:36:27.965Z,2.13
2019-01-03T09:39:27.536Z,1.53
2019-01-03T09:42:18.033Z,1.77
2019-01-03T09:44:49.850Z,1.73
2019-01-03T09:47:21.695Z,1.73
2019-01-03T09:49:53.586Z,2.23
2019-01-03T09:52:25.411Z,1.67
2019-01-03T09:54:57.253Z,1.60
2019-01-03T09:57:29.108Z,2.03
2019-01-03T10:00:00.959Z,2.10
2019-01-03T10:02:32.793Z,1.73
2019-01-03T10:05:04.911Z,1.40
2019-01-03T10:07:36.792Z,1.73
2019-01-03T10:10:09.085Z,1.77
2019-01-03T10:12:40.986Z,1.73
2019-01-03T10:15:19.063Z,1.40
2019-01-03T10:17:50.928Z,1.70
2019-01-03T10:20:22.812Z,1.60
2019-01-03T10:22:54.637Z,2.00
2019-01-03T10:25:26.459Z,2.10
2019-01-03T10:27:58.311Z,1.50
2019-01-03T10:30:30.163Z,1.80
2019-01-03T10:33:02.027Z,1.77
2019-01-03T10:35:33.945Z,2.90
2019-01-03T10:38:05.877Z,1.73
2019-01-03T10:40:37.758Z,1.73
2019-01-03T10:43:09.583Z,1.90
2019-01-03T10:45:41.486Z,1.27
2019-01-03T10:48:13.363Z,1.60
2019-01-03T10:50:45.182Z,1.30
2019-01-03T10:53:17.061Z,1.80
2019-01-03T10:55:48.930Z,1.40
2019-01-03T10:58:20.826Z,1.50
2019-01-03T11:00:52.668Z,1.47
2019-01-03T11:03:24.555Z,1.87
2019-01-03T11:05:56.392Z,1.70
2019-01-03T11:08:28.208Z,1.70
2019-01-03T11:11:02.234Z,2.00
2019-01-03T11:13:33.646Z,2.77
2019-01-03T11:16:05.551Z,1.70
2019-01-03T11:18:37.395Z,1.97
2019-01-03T11:21:09.198Z,2.00
2019-01-03T11:23:41.059Z,1.53
2019-01-03T11:26:13.438Z,1.53
2019-01-03T11:28:45.255Z,1.57
2019-01-03T11:31:17.080Z,1.60
2019-01-03T11:33:48.982Z,1.80
2019-01-03T11:36:20.808Z,1.70
2019-01-03T11:38:52.892Z,1.80
2019-01-03T11:41:30.268Z,1.90
2019-01-03T11:44:02.220Z,2.00
2019-01-03T11:46:34.046Z,1.87
2019-01-03T11:49:05.989Z,2.00
2019-01-03T11:51:37.968Z,2.00
2019-01-03T11:54:21.165Z,2.40
2019-01-03T11:56:53.058Z,2.30
2019-01-03T11:59:25.881Z,2.43
2019-01-03T12:01:57.771Z,2.30
2019-01-03T12:04:29.632Z,2.10
2019-01-03T12:07:01.543Z,2.00
2019-01-03T12:09:33.445Z,2.10
2019-01-03T12:12:05.355Z,1.73
2019-01-03T12:14:37.248Z,1.60
2019-01-03T12:17:09.169Z,2.03
2019-01-03T12:19:41.096Z,1.67
2019-01-03T12:22:12.986Z,1.50
2019-01-03T12:24:44.918Z,1.77
2019-01-03T12:27:16.847Z,1.63
2019-01-03T12:29:48.741Z,1.73
2019-01-03T12:32:20.669Z,2.00
2019-01-03T12:34:52.552Z,1.80
2019-01-03T12:37:26.654Z,1.80
2019-01-03T12:39:58.587Z,1.50
2019-01-03T12:42:30.522Z,1.90
2019-01-03T12:45:04.827Z,1.93
2019-01-03T12:47:38.184Z,1.50
2019-01-03T12:50:12.364Z,1.80
2019-01-03T12:52:44.300Z,2.20
2019-01-03T12:55:16.239Z,1.70
2019-01-03T12:57:50.736Z,1.70
2019-01-03T13:00:22.875Z,1.80
2019-01-03T13:02:55.157Z,1.70
2019-01-03T13:05:27.180Z,1.90
2019-01-03T13:07:59.479Z,1.67
2019-01-03T13:10:34.969Z,1.90
2019-01-03T13:13:06.910Z,1.50
2019-01-03T13:15:38.808Z,1.50
2019-01-03T13:18:11.636Z,1.53
2019-01-03T13:20:43.451Z,1.83
2019-01-03T13:23:15.316Z,1.27
2019-01-03T13:25:47.212Z,1.80
2019-01-03T13:28:19.169Z,1.70
2019-01-03T13:30:51.023Z,1.50
2019-01-03T13:33:22.925Z,1.47
2019-01-03T13:35:54.786Z,1.30
2019-01-03T13:38:26.653Z,1.50
2019-01-03T13:40:58.557Z,1.53
2019-01-03T13:43:30.438Z,1.50
2019-01-03T13:46:02.336Z,1.50
2019-01-03T13:48:34.217Z,1.77
2019-01-03T13:51:06.188Z,1.43
2019-01-03T13:53:38.061Z,1.20
2019-01-03T13:56:09.933Z,1.50
2019-01-03T13:58:41.831Z,1.80
2019-01-03T14:01:13.740Z,1.30
2019-01-03T14:03:45.616Z,0.97
2019-01-03T14:06:17.484Z,1.50
2019-01-03T14:08:49.437Z,1.00
2019-01-03T14:11:21.355Z,1.57
2019-01-03T14:13:53.250Z,1.70
2019-01-03T14:16:25.157Z,1.80
2019-01-03T14:18:57.046Z,1.67
2019-01-03T14:21:29.979Z,1.47
2019-01-03T14:24:01.908Z,1.40
2019-01-03T14:26:33.788Z,1.40
2019-01-03T14:29:05.673Z,1.17
2019-01-03T14:31:37.530Z,1.07
2019-01-03T14:34:09.400Z,1.20
2019-01-03T14:36:41.345Z,1.20
2019-01-03T14:39:13.218Z,1.10
2019-01-03T14:41:45.104Z,1.20
2019-01-03T14:44:17.016Z,1.10
2019-01-03T14:46:48.900Z,1.30
2019-01-03T14:49:20.780Z,1.33
2019-01-03T14:51:52.790Z,1.40
2019-01-03T14:54:24.711Z,1.20
2019-01-03T14:56:56.580Z,1.20
2019-01-03T14:59:28.470Z,1.40
2019-01-03T15:02:00.386Z,1.50
2019-01-03T15:04:32.324Z,1.37
2019-01-03T15:07:04.139Z,1.90
2019-01-03T15:09:36.019Z,1.67
2019-01-03T15:12:07.914Z,1.47
2019-01-03T15:14:39.817Z,1.90
2019-01-03T15:17:11.702Z,1.60
2019-01-03T15:19:43.648Z,1.50
2019-01-03T15:22:15.504Z,1.30
2019-01-03T15:24:47.391Z,1.30
2019-01-03T15:27:19.280Z,1.00
2019-01-03T15:29:52.796Z,1.30
2019-01-03T15:32:24.649Z,1.00
2019-01-03T15:34:56.582Z,1.17
2019-01-03T15:37:28.458Z,1.53
2019-01-03T15:40:00.382Z,1.37
2019-01-03T15:42:32.256Z,1.10
2019-01-03T15:45:04.149Z,1.30
2019-01-03T15:47:36.023Z,1.23
2019-01-03T15:50:08.492Z,1.20
2019-01-03T15:52:40.398Z,0.93
2019-01-03T15:55:12.258Z,1.30
2019-01-03T15:57:44.150Z,1.23
2019-01-03T16:00:16.049Z,1.20
2019-01-03T16:02:47.882Z,1.60
2019-01-03T16:05:19.749Z,1.40
2019-01-03T16:07:51.676Z,1.43
2019-01-03T16:10:23.514Z,1.47
2019-01-03T16:12:55.378Z,1.50
2019-01-03T16:15:27.234Z,1.83
2019-01-03T16:17:59.096Z,1.93
2019-01-03T16:20:30.915Z,2.73
2019-01-03T16:23:02.791Z,3.47
2019-01-03T16:25:34.659Z,2.90
2019-01-03T16:28:06.551Z,2.37
2019-01-03T16:30:38.425Z,2.30
2019-01-03T16:33:10.270Z,2.57
2019-01-03T16:35:47.851Z,2.40
2019-01-03T16:38:15.759Z,3.20
2019-01-03T16:40:47.608Z,2.93
2019-01-03T16:43:19.467Z,2.70
2019-01-03T16:45:53.005Z,2.40
2019-01-03T16:48:24.844Z,2.10
2019-01-03T16:50:56.749Z,1.90
2019-01-03T16:53:28.687Z,2.27
2019-01-03T16:56:00.589Z,1.90
2019-01-03T16:58:32.459Z,2.30
2019-01-03T17:01:04.372Z,1.97
2019-01-03T17:03:36.234Z,2.30
2019-01-03T17:06:08.188Z,1.93
2019-01-03T17:08:40.028Z,2.23
2019-01-03T17:11:11.890Z,1.93
2019-01-03T17:13:43.824Z,1.70
2019-01-03T17:16:15.693Z,1.67
2019-01-03T17:18:47.603Z,1.90
2019-01-03T17:21:19.474Z,1.70
2019-01-03T17:23:51.366Z,2.00
2019-01-03T17:26:23.303Z,1.97
2019-01-03T17:28:55.260Z,2.20
2019-01-03T17:31:27.110Z,2.07
2019-01-03T17:33:59.007Z,1.60
2019-01-03T17:36:30.940Z,1.53
2019-01-03T17:39:03.420Z,1.83
2019-01-03T17:41:35.358Z,2.10
2019-01-03T17:44:07.225Z,2.00
2019-01-03T17:46:39.136Z,2.10
2019-01-03T17:49:11.019Z,2.13
2019-01-03T17:51:42.930Z,2.33
2019-01-03T17:54:14.869Z,2.20
2019-01-03T17:56:46.732Z,2.30
2019-01-03T17:59:18.736Z,3.47
2019-01-03T18:01:50.622Z,2.47
2019-01-03T18:04:22.536Z,2.43
2019-01-03T18:06:54.410Z,2.20
2019-01-03T18:09:26.301Z,2.37
2019-01-03T18:11:58.220Z,2.33
2019-01-03T18:14:30.135Z,2.43
2019-01-03T18:17:02.009Z,2.20
2019-01-03T18:19:33.889Z,2.37
2019-01-03T18:22:05.811Z,2.70
2019-01-03T18:24:37.660Z,2.30
2019-01-03T18:27:09.528Z,2.40
2019-01-03T18:29:41.450Z,2.60
2019-01-03T18:32:13.392Z,2.73
2019-01-03T18:34:45.631Z,2.77
2019-01-03T18:37:17.584Z,3.70
2019-01-03T18:39:52.678Z,3.33
2019-01-03T18:42:23.144Z,3.00
2019-01-03T18:44:55.064Z,3.00
2019-01-03T18:47:26.950Z,3.07
2019-01-03T18:49:58.855Z,3.33
2019-01-03T18:52:30.796Z,3.30
2019-01-03T18:55:02.743Z,3.20
2019-01-03T18:57:34.661Z,3.40
2019-01-03T19:00:08.368Z,3.67
2019-01-03T19:02:40.290Z,3.50
2019-01-03T19:05:12.295Z,4.13
2019-01-03T19:07:44.226Z,3.60
2019-01-03T19:10:16.230Z,3.93
2019-01-03T19:12:48.144Z,3.60
2019-01-03T19:15:20.070Z,4.50
2019-01-03T19:17:51.965Z,4.07
2019-01-03T19:20:23.880Z,3.97
2019-01-03T19:22:55.873Z,3.40
2019-01-03T19:25:27.804Z,3.70
2019-01-03T19:28:00.984Z,4.07
2019-01-03T19:30:32.923Z,3.80
2019-01-03T19:33:04.771Z,4.53
2019-01-03T19:35:36.620Z,3.57
2019-01-03T19:38:08.487Z,3.40
2019-01-03T19:40:40.374Z,3.33
2019-01-03T19:43:12.294Z,2.83
2019-01-03T19:45:44.207Z,2.77
2019-01-03T19:48:18.631Z,2.47
2019-01-03T19:50:50.460Z,2.50
2019-01-03T19:53:22.324Z,2.50
2019-01-03T19:55:54.243Z,2.73
2019-01-03T19:58:26.096Z,2.60
2019-01-03T20:00:57.963Z,2.90
2019-01-03T20:03:29.850Z,2.73
2019-01-03T20:06:01.732Z,2.57
2019-01-03T20:08:33.540Z,3.10
2019-01-03T20:11:05.502Z,2.70
2019-01-03T20:13:37.350Z,3.10
2019-01-03T20:16:09.263Z,2.77
2019-01-03T20:18:41.165Z,2.90
2019-01-03T20:21:13.065Z,2.70
2019-01-03T20:23:44.957Z,2.90
2019-01-03T20:26:16.859Z,2.60
2019-01-03T20:28:48.760Z,3.23
2019-01-03T20:31:20.593Z,3.13
2019-01-03T20:33:52.499Z,3.20
2019-01-03T20:36:24.557Z,2.93
2019-01-03T20:38:56.586Z,3.30
2019-01-03T20:41:28.427Z,2.80
2019-01-03T20:44:00.520Z,2.90
2019-01-03T20:46:32.443Z,2.43
2019-01-03T20:49:04.431Z,2.90
2019-01-03T20:51:36.420Z,3.30
2019-01-03T20:54:08.280Z,5.37
2019-01-03T20:56:40.207Z,4.50
2019-01-03T20:59:12.053Z,3.17
2019-01-03T21:01:43.923Z,3.40
2019-01-03T21:04:15.884Z,3.20
2019-01-03T21:06:47.726Z,2.90
2019-01-03T21:09:19.635Z,2.70
2019-01-03T21:11:51.523Z,2.80
2019-01-03T21:14:23.406Z,3.00
2019-01-03T21:16:55.307Z,3.50
2019-01-03T21:19:27.213Z,3.07
2019-01-03T21:21:59.070Z,2.73
2019-01-03T21:24:30.908Z,3.47
2019-01-03T21:27:02.811Z,3.60
2019-01-03T21:29:34.680Z,4.33
2019-01-03T21:32:06.532Z,4.30
2019-01-03T21:34:38.383Z,4.03
2019-01-03T21:37:10.485Z,3.73
2019-01-03T21:39:42.407Z,4.00
2019-01-03T21:42:14.363Z,3.53
2019-01-03T21:44:46.314Z,3.57
2019-01-03T21:47:18.805Z,3.90
2019-01-03T21:49:50.863Z,4.10
2019-01-03T21:52:22.894Z,3.87
2019-01-03T21:54:54.808Z,3.80
2019-01-03T21:57:29.516Z,3.87
2019-01-03T22:00:01.426Z,3.60
2019-01-03T22:02:33.242Z,3.90
2019-01-03T22:05:05.134Z,3.93
2019-01-03T22:07:37.023Z,4.10
2019-01-03T22:10:11.019Z,4.20
2019-01-03T22:12:42.862Z,3.80
2019-01-03T22:15:14.768Z,4.27
2019-01-03T22:17:46.631Z,4.10
2019-01-03T22:20:18.484Z,3.83
2019-01-03T22:22:50.334Z,4.20
2019-01-03T22:25:22.179Z,4.30
2019-01-03T22:27:54.051Z,3.93
2019-01-03T22:30:26.227Z,3.80
2019-01-03T22:32:58.043Z,4.47
2019-01-03T22:35:29.925Z,4.33
2019-01-03T22:38:01.726Z,3.87
2019-01-03T22:40:33.618Z,4.00
2019-01-03T22:43:05.463Z,4.60
2019-01-03T22:45:37.354Z,4.03
2019-01-03T22:48:09.180Z,4.83
2019-01-03T22:50:41.050Z,4.33
2019-01-03T22:53:12.871Z,4.47
2019-01-03T22:55:44.726Z,4.30
2019-01-03T22:58:16.609Z,4.57
2019-01-03T23:00:53.800Z,4.63
2019-01-03T23:03:25.637Z,4.23
2019-01-03T23:05:57.420Z,5.00
2019-01-03T23:08:29.240Z,3.73
2019-01-03T23:11:01.042Z,4.50
2019-01-03T23:13:32.865Z,4.83
2019-01-03T23:16:04.724Z,4.93
2019-01-03T23:18:36.597Z,5.10
2019-01-03T23:21:08.477Z,5.13
2019-01-03T23:23:40.341Z,5.17
2019-01-03T23:26:12.207Z,4.47
2019-01-03T23:28:44.017Z,5.13
2019-01-03T23:31:15.832Z,5.00
2019-01-03T23:33:47.671Z,5.27
2019-01-03T23:36:19.724Z,4.60
2019-01-03T23:38:51.577Z,4.80
2019-01-03T23:41:23.438Z,5.23
2019-01-03T23:43:55.356Z,5.80
2019-01-03T23:46:27.231Z,5.27
2019-01-03T23:48:59.089Z,6.17
2019-01-03T23:51:30.951Z,5.33
2019-01-03T23:54:02.833Z,5.73
2019-01-03T23:56:34.703Z,6.10
2019-01-03T23:59:06.508Z,5.47
